createdAt,value
2018-12-25T00:01:16.329Z,77.77
2018-12-25T00:03:43.800Z,77.55
2018-12-25T00:06:11.236Z,77.30
2018-12-25T00:08:38.689Z,77.31
2018-12-25T00:11:07.176Z,76.92
2018-12-25T00:13:34.595Z,77.14
2018-12-25T00:16:02.110Z,77.56
2018-12-25T00:18:29.566Z,77.69
2018-12-25T00:20:57.028Z,77.55
2018-12-25T00:23:24.473Z,77.36
2018-12-25T00:25:51.918Z,77.61
2018-12-25T00:28:19.452Z,77.94
2018-12-25T00:30:46.893Z,77.08
2018-12-25T00:33:14.354Z,77.55
2018-12-25T00:35:41.799Z,77.45
2018-12-25T00:38:09.310Z,76.79
2018-12-25T00:40:36.766Z,77.23
2018-12-25T00:43:04.234Z,75.98
2018-12-25T00:45:31.673Z,75.83
2018-12-25T00:47:59.147Z,75.48
2018-12-25T00:50:26.592Z,75.32
2018-12-25T00:52:54.033Z,76.21
2018-12-25T00:57:55.272Z,76.95
2018-12-25T01:00:22.730Z,76.78
2018-12-25T01:02:50.203Z,76.63
2018-12-25T01:05:17.631Z,76.76
2018-12-25T01:07:47.299Z,76.86
2018-12-25T01:10:14.807Z,77.09
2018-12-25T01:12:42.226Z,76.76
2018-12-25T01:15:09.672Z,76.46
2018-12-25T01:17:37.100Z,76.75
2018-12-25T01:20:04.546Z,76.90
2018-12-25T01:22:32.011Z,76.65
2018-12-25T01:24:59.459Z,76.79
2018-12-25T01:27:26.932Z,76.83
2018-12-25T01:29:54.369Z,77.61
2018-12-25T01:32:21.815Z,77.66
2018-12-25T01:34:49.231Z,77.54
2018-12-25T01:37:16.690Z,77.95
2018-12-25T01:39:44.126Z,78.03
2018-12-25T01:42:11.557Z,78.52
2018-12-25T01:44:38.994Z,77.91
2018-12-25T01:47:07.209Z,78.23
2018-12-25T01:49:34.664Z,77.63
2018-12-25T01:52:02.133Z,77.17
2018-12-25T01:54:29.572Z,77.76
2018-12-25T01:56:56.993Z,77.89
2018-12-25T01:59:24.446Z,77.62
2018-12-25T02:01:51.864Z,77.24
2018-12-25T02:04:19.315Z,77.16
2018-12-25T02:06:46.735Z,77.43
2018-12-25T02:09:14.172Z,77.34
2018-12-25T02:11:41.593Z,76.99
2018-12-25T02:14:09.043Z,76.85
2018-12-25T02:16:36.488Z,77.17
2018-12-25T02:19:03.931Z,76.96
2018-12-25T02:21:31.359Z,78.04
2018-12-25T02:23:58.769Z,77.61
2018-12-25T02:26:26.226Z,77.47
2018-12-25T02:28:54.078Z,77.56
2018-12-25T02:31:21.499Z,77.50
2018-12-25T02:33:48.954Z,77.90
2018-12-25T02:36:16.405Z,77.29
2018-12-25T02:38:44.014Z,77.48
2018-12-25T02:41:11.377Z,78.06
2018-12-25T02:43:38.844Z,77.97
2018-12-25T02:46:06.268Z,77.35
2018-12-25T02:48:33.793Z,77.34
2018-12-25T02:51:01.211Z,77.52
2018-12-25T02:53:28.717Z,77.20
2018-12-25T02:55:56.143Z,77.61
2018-12-25T02:58:23.602Z,76.92
2018-12-25T03:00:52.272Z,77.50
2018-12-25T03:03:19.973Z,77.51
2018-12-25T03:05:47.417Z,77.49
2018-12-25T03:08:14.953Z,77.43
2018-12-25T03:10:42.389Z,77.48
2018-12-25T03:13:09.807Z,77.35
2018-12-25T03:15:37.916Z,77.52
2018-12-25T03:18:05.415Z,76.64
2018-12-25T03:20:32.860Z,77.41
2018-12-25T03:23:00.287Z,77.15
2018-12-25T03:25:27.753Z,76.94
2018-12-25T03:27:55.215Z,76.58
2018-12-25T03:30:22.660Z,77.96
2018-12-25T03:32:50.102Z,77.64
2018-12-25T03:35:17.540Z,78.09
2018-12-25T03:37:44.994Z,77.95
2018-12-25T03:40:12.464Z,77.71
2018-12-25T03:42:39.910Z,77.95
2018-12-25T03:45:07.365Z,78.19
2018-12-25T03:47:34.802Z,78.11
2018-12-25T03:50:10.590Z,77.70
2018-12-25T03:52:29.735Z,77.76
2018-12-25T03:54:57.175Z,77.93
2018-12-25T03:57:24.611Z,77.95
2018-12-25T03:59:52.146Z,77.62
2018-12-25T04:02:19.642Z,77.45
2018-12-25T04:04:47.113Z,78.02
2018-12-25T04:07:14.550Z,77.45
2018-12-25T04:09:42.003Z,77.87
2018-12-25T04:12:10.351Z,77.74
2018-12-25T04:14:37.899Z,77.58
2018-12-25T04:17:05.330Z,77.60
2018-12-25T04:19:32.777Z,78.09
2018-12-25T04:22:00.226Z,77.76
2018-12-25T04:24:27.688Z,77.32
2018-12-25T04:26:55.180Z,77.50
2018-12-25T04:29:22.653Z,78.35
2018-12-25T04:31:50.096Z,78.17
2018-12-25T04:34:17.538Z,77.96
2018-12-25T04:36:45.029Z,77.91
2018-12-25T04:39:12.461Z,77.65
2018-12-25T04:41:39.908Z,77.22
2018-12-25T04:44:07.351Z,77.56
2018-12-25T04:46:35.857Z,77.46
2018-12-25T04:49:03.368Z,77.39
2018-12-25T04:51:30.842Z,77.19
2018-12-25T04:53:58.263Z,76.57
2018-12-25T04:56:25.731Z,77.34
2018-12-25T04:58:53.182Z,77.40
2018-12-25T05:01:20.608Z,77.02
2018-12-25T05:03:48.076Z,77.48
2018-12-25T05:06:15.514Z,77.20
2018-12-25T05:08:42.975Z,77.66
2018-12-25T05:11:10.424Z,77.80
2018-12-25T05:13:37.864Z,77.21
2018-12-25T05:16:05.308Z,76.98
2018-12-25T05:18:32.782Z,77.71
2018-12-25T05:21:00.244Z,78.15
2018-12-25T05:23:27.714Z,77.53
2018-12-25T05:25:55.197Z,77.21
2018-12-25T05:28:22.686Z,77.42
2018-12-25T05:30:50.158Z,77.68
2018-12-25T05:33:17.602Z,77.46
2018-12-25T05:35:45.437Z,77.51
2018-12-25T05:38:12.849Z,77.58
2018-12-25T05:40:40.310Z,77.28
2018-12-25T05:43:07.759Z,77.71
2018-12-25T05:45:35.196Z,78.18
2018-12-25T05:48:02.662Z,77.75
2018-12-25T05:50:30.099Z,77.59
2018-12-25T05:52:57.564Z,77.49
2018-12-25T05:55:24.992Z,77.82
2018-12-25T05:57:52.464Z,78.09
2018-12-25T06:00:19.889Z,77.58
2018-12-25T06:02:47.335Z,78.17
2018-12-25T06:05:14.793Z,77.70
2018-12-25T06:07:42.235Z,77.84
2018-12-25T06:10:09.682Z,78.38
2018-12-25T06:12:37.156Z,78.21
2018-12-25T06:15:04.588Z,77.85
2018-12-25T06:17:32.044Z,78.03
2018-12-25T06:19:59.487Z,77.79
2018-12-25T06:22:26.935Z,77.29
2018-12-25T06:24:54.371Z,77.72
2018-12-25T06:27:21.829Z,77.56
2018-12-25T06:29:49.294Z,77.59
2018-12-25T06:32:17.753Z,78.07
2018-12-25T06:34:45.262Z,77.54
2018-12-25T06:37:12.703Z,77.68
2018-12-25T06:39:40.135Z,78.02
2018-12-25T06:42:07.616Z,78.15
2018-12-25T06:44:35.046Z,78.11
2018-12-25T06:47:02.473Z,78.42
2018-12-25T06:49:29.883Z,78.84
2018-12-25T06:51:57.347Z,77.77
2018-12-25T06:54:24.843Z,77.63
2018-12-25T06:56:52.231Z,77.91
2018-12-25T06:59:19.690Z,77.79
2018-12-25T07:01:47.129Z,77.85
2018-12-25T07:04:14.566Z,78.09
2018-12-25T07:06:41.999Z,78.04
2018-12-25T07:09:09.445Z,77.77
2018-12-25T07:11:36.897Z,77.57
2018-12-25T07:14:04.353Z,77.61
2018-12-25T07:16:32.923Z,77.78
2018-12-25T07:19:00.482Z,77.73
2018-12-25T07:21:27.907Z,77.51
2018-12-25T07:23:55.330Z,77.69
2018-12-25T07:26:22.803Z,77.73
2018-12-25T07:28:50.244Z,77.85
2018-12-25T07:31:17.699Z,77.55
2018-12-25T07:33:45.143Z,77.44
2018-12-25T07:36:12.599Z,77.24
2018-12-25T07:38:40.052Z,76.83
2018-12-25T07:41:07.493Z,76.87
2018-12-25T07:43:34.951Z,76.67
2018-12-25T07:46:02.445Z,76.65
2018-12-25T07:48:29.856Z,76.96
2018-12-25T07:50:57.315Z,76.89
2018-12-25T07:53:24.757Z,77.57
2018-12-25T07:55:52.212Z,77.70
2018-12-25T07:58:19.671Z,77.77
2018-12-25T08:00:47.157Z,77.67
2018-12-25T08:03:15.806Z,77.87
2018-12-25T08:05:43.254Z,78.33
2018-12-25T08:08:10.690Z,78.33
2018-12-25T08:10:38.131Z,78.90
2018-12-25T08:13:05.601Z,79.12
2018-12-25T08:15:33.061Z,79.00
2018-12-25T08:18:01.364Z,79.22
2018-12-25T08:20:28.961Z,79.53
2018-12-25T08:23:02.543Z,79.13
2018-12-25T08:25:23.905Z,78.83
2018-12-25T08:27:51.368Z,78.57
2018-12-25T08:30:18.830Z,78.45
2018-12-25T08:32:46.291Z,78.27
2018-12-25T08:35:13.731Z,78.67
2018-12-25T08:37:41.194Z,78.57
2018-12-25T08:40:08.630Z,78.34
2018-12-25T08:42:36.125Z,77.80
2018-12-25T08:45:05.333Z,78.44
2018-12-25T08:47:32.882Z,78.33
2018-12-25T08:50:00.297Z,77.87
2018-12-25T08:52:27.745Z,77.63
2018-12-25T08:54:55.218Z,77.22
2018-12-25T08:57:22.639Z,76.84
2018-12-25T08:59:50.094Z,76.81
2018-12-25T09:02:17.556Z,77.28
2018-12-25T09:04:45.000Z,77.61
2018-12-25T09:07:12.430Z,77.92
2018-12-25T09:09:39.865Z,77.76
2018-12-25T09:12:07.333Z,77.76
2018-12-25T09:14:34.769Z,77.54
2018-12-25T09:17:02.191Z,77.04
2018-12-25T09:19:29.641Z,77.83
2018-12-25T09:21:57.101Z,77.47
2018-12-25T09:24:24.516Z,78.23
2018-12-25T09:26:51.949Z,78.27
2018-12-25T09:29:19.382Z,78.22
2018-12-25T09:31:46.859Z,78.32
2018-12-25T09:34:14.294Z,78.31
2018-12-25T09:36:41.801Z,78.36
2018-12-25T09:39:09.252Z,78.90
2018-12-25T09:41:36.707Z,78.74
2018-12-25T09:44:04.131Z,79.34
2018-12-25T09:46:31.592Z,78.57
2018-12-25T09:48:59.037Z,78.18
2018-12-25T09:51:26.467Z,78.52
2018-12-25T09:53:53.923Z,78.35
2018-12-25T09:56:21.400Z,78.04
2018-12-25T09:58:48.861Z,77.82
2018-12-25T10:01:16.271Z,78.04
2018-12-25T10:03:43.732Z,77.76
2018-12-25T10:06:11.157Z,77.50
2018-12-25T10:08:38.605Z,77.58
2018-12-25T10:11:06.029Z,77.60
2018-12-25T10:13:33.480Z,77.35
2018-12-25T10:16:00.906Z,76.73
2018-12-25T10:18:29.409Z,76.77
2018-12-25T10:20:56.997Z,76.14
2018-12-25T10:23:24.440Z,75.95
2018-12-25T10:25:51.911Z,75.70
2018-12-25T10:28:19.364Z,75.87
2018-12-25T10:30:46.836Z,75.76
2018-12-25T10:33:15.040Z,75.47
2018-12-25T10:35:42.560Z,75.31
2018-12-25T10:38:09.993Z,75.15
2018-12-25T10:40:37.530Z,76.05
2018-12-25T10:43:04.955Z,75.06
2018-12-25T10:45:32.389Z,75.01
2018-12-25T10:48:01.308Z,75.38
2018-12-25T10:50:28.844Z,74.90
2018-12-25T10:52:56.285Z,74.84
2018-12-25T10:55:23.735Z,74.95
2018-12-25T10:57:51.189Z,75.39
2018-12-25T11:00:18.632Z,75.29
2018-12-25T11:02:46.047Z,75.17
2018-12-25T11:05:13.495Z,75.65
2018-12-25T11:07:40.935Z,75.22
2018-12-25T11:10:10.269Z,74.65
2018-12-25T11:12:37.720Z,74.82
2018-12-25T11:15:05.188Z,75.49
2018-12-25T11:17:32.649Z,75.48
2018-12-25T11:20:00.766Z,76.16
2018-12-25T11:22:28.184Z,76.41
2018-12-25T11:24:55.670Z,76.30
2018-12-25T11:27:23.130Z,75.99
2018-12-25T11:29:50.581Z,76.16
2018-12-25T11:32:18.134Z,76.33
2018-12-25T13:05:53.940Z,76.10
2018-12-25T13:08:21.432Z,75.71
2018-12-25T13:10:48.886Z,75.88
2018-12-25T13:13:16.398Z,75.11
2018-12-25T13:15:43.818Z,74.86
2018-12-25T13:18:11.276Z,74.57
2018-12-25T13:20:38.735Z,74.35
2018-12-25T13:23:06.198Z,75.05
2018-12-25T13:25:33.628Z,74.19
2018-12-25T13:28:01.047Z,74.13
2018-12-25T13:30:28.506Z,74.15
2018-12-25T13:32:55.989Z,74.33
2018-12-25T13:35:23.409Z,74.27
2018-12-25T13:37:50.837Z,74.60
2018-12-25T13:40:18.270Z,74.32
2018-12-25T13:42:45.688Z,74.27
2018-12-25T13:45:13.156Z,74.01
2018-12-25T13:47:40.596Z,74.49
2018-12-25T13:50:08.051Z,73.84
2018-12-25T13:52:35.499Z,73.76
2018-12-25T13:55:02.986Z,74.16
2018-12-25T13:57:30.423Z,73.45
2018-12-25T13:59:57.864Z,73.53
2018-12-25T14:02:25.300Z,73.53
2018-12-25T14:04:52.748Z,73.76
2018-12-25T14:07:20.168Z,73.81
2018-12-25T14:09:47.622Z,74.07
2018-12-25T14:12:15.048Z,73.71
2018-12-25T14:14:42.609Z,73.37
2018-12-25T14:17:10.085Z,72.92
2018-12-25T14:19:37.525Z,73.39
2018-12-25T14:22:04.976Z,73.03
2018-12-25T14:24:32.453Z,73.25
2018-12-25T14:26:59.892Z,73.01
2018-12-25T14:29:27.376Z,73.82
2018-12-25T14:31:54.830Z,74.00
2018-12-25T14:34:23.082Z,73.88
2018-12-25T14:36:50.584Z,73.34
2018-12-25T14:39:18.009Z,73.75
2018-12-25T14:41:45.447Z,73.69
2018-12-25T14:44:12.885Z,73.51
2018-12-25T14:46:40.325Z,73.33
2018-12-25T14:49:07.757Z,73.26
2018-12-25T14:51:35.216Z,73.26
2018-12-25T14:54:02.661Z,74.07
2018-12-25T14:56:30.103Z,73.97
2018-12-25T14:58:57.530Z,73.87
2018-12-25T15:01:24.996Z,74.46
2018-12-25T15:03:52.415Z,74.28
2018-12-25T15:06:19.917Z,73.60
2018-12-25T15:08:47.364Z,74.08
2018-12-25T15:11:14.830Z,74.67
2018-12-25T15:13:42.288Z,74.28
2018-12-25T15:16:09.710Z,74.23
2018-12-25T15:18:37.159Z,74.28
2018-12-25T15:21:04.591Z,73.88
2018-12-25T15:23:32.049Z,73.97
2018-12-25T15:25:59.482Z,73.85
2018-12-25T15:28:26.964Z,73.94
2018-12-25T15:30:54.433Z,73.80
2018-12-25T15:33:21.935Z,73.68
2018-12-25T15:38:24.330Z,74.59
2018-12-25T15:40:51.796Z,74.00
2018-12-25T15:43:19.294Z,74.98
2018-12-25T15:45:46.731Z,74.64
2018-12-25T15:48:14.173Z,74.38
2018-12-25T15:50:41.600Z,74.37
2018-12-25T15:53:09.048Z,73.80
2018-12-25T15:55:36.495Z,74.39
2018-12-25T15:58:03.937Z,74.61
2018-12-25T16:00:32.059Z,74.89
2018-12-25T16:02:58.827Z,74.92
2018-12-25T16:05:26.284Z,75.46
2018-12-25T16:07:54.340Z,74.87
2018-12-25T16:10:21.766Z,74.41
2018-12-25T16:12:49.233Z,74.80
2018-12-25T16:15:16.664Z,74.53
2018-12-25T16:17:44.124Z,75.08
2018-12-25T16:20:11.593Z,75.05
2018-12-25T16:22:39.050Z,74.91
2018-12-25T16:25:06.487Z,75.04
2018-12-25T16:27:33.998Z,74.57
2018-12-25T16:30:01.442Z,74.87
2018-12-25T16:32:28.919Z,75.18
2018-12-25T16:34:56.339Z,75.04
2018-12-25T16:37:23.798Z,74.91
2018-12-25T16:39:51.246Z,75.49
2018-12-25T16:42:18.675Z,75.31
2018-12-25T16:44:46.139Z,74.85
2018-12-25T16:47:13.649Z,74.99
2018-12-25T16:49:41.130Z,74.61
2018-12-25T16:52:08.562Z,74.98
2018-12-25T16:54:36.925Z,75.94
2018-12-25T16:57:04.468Z,76.39
2018-12-25T16:59:31.909Z,76.17
2018-12-25T17:01:59.378Z,75.92
2018-12-25T17:04:26.843Z,75.52
2018-12-25T17:06:54.375Z,75.19
2018-12-25T17:09:22.140Z,75.65
2018-12-25T17:11:49.575Z,75.22
2018-12-25T17:14:17.034Z,75.02
2018-12-25T17:16:47.501Z,74.86
2018-12-25T17:19:15.013Z,75.32
2018-12-25T17:21:42.525Z,75.01
2018-12-25T17:24:09.959Z,74.65
2018-12-25T17:26:37.376Z,74.48
2018-12-25T17:29:04.824Z,74.32
2018-12-25T17:31:32.295Z,74.45
2018-12-25T17:33:59.746Z,74.27
2018-12-25T17:36:27.341Z,73.54
2018-12-25T17:38:54.790Z,73.55
2018-12-25T17:41:22.268Z,73.51
2018-12-25T17:43:49.760Z,73.14
2018-12-25T17:46:17.254Z,73.39
2018-12-25T17:48:44.688Z,73.61
2018-12-25T17:51:13.006Z,73.76
2018-12-25T17:53:40.549Z,74.14
2018-12-25T17:56:08.024Z,74.52
2018-12-25T17:58:35.477Z,74.96
2018-12-25T18:01:02.905Z,74.60
2018-12-25T18:03:30.422Z,74.07
2018-12-25T18:05:57.870Z,74.16
2018-12-25T18:08:25.344Z,74.49
2018-12-25T18:10:52.816Z,75.11
2018-12-25T18:13:21.140Z,74.19
2018-12-25T18:15:48.589Z,74.26
2018-12-25T18:18:16.058Z,74.04
2018-12-25T18:20:43.526Z,74.02
2018-12-25T18:23:10.964Z,73.73
2018-12-25T18:25:38.425Z,74.83
2018-12-25T18:28:05.893Z,74.05
2018-12-25T18:30:33.325Z,74.33
2018-12-25T18:33:00.805Z,73.84
2018-12-25T18:35:29.349Z,73.89
2018-12-25T18:37:56.956Z,73.94
2018-12-25T18:40:24.391Z,74.83
2018-12-25T18:42:51.859Z,75.01
2018-12-25T18:45:19.294Z,75.27
2018-12-25T18:47:46.779Z,74.75
2018-12-25T18:50:14.227Z,73.98
2018-12-25T18:52:41.699Z,73.87
2018-12-25T18:55:09.182Z,74.93
2018-12-25T18:57:36.682Z,74.47
2018-12-25T19:00:04.108Z,74.33
2018-12-25T19:02:31.570Z,74.59
2018-12-25T19:04:59.095Z,74.54
2018-12-25T19:07:26.534Z,74.67
2018-12-25T19:09:53.988Z,74.16
2018-12-25T19:12:21.413Z,74.43
2018-12-25T19:14:48.871Z,74.42
2018-12-25T19:17:16.303Z,74.67
2018-12-25T19:19:43.721Z,74.70
2018-12-25T19:22:11.154Z,74.00
2018-12-25T19:24:38.586Z,74.29
2018-12-25T19:27:06.029Z,74.66
2018-12-25T19:29:33.475Z,75.33
2018-12-25T19:32:00.927Z,74.88
2018-12-25T19:34:28.371Z,74.61
2018-12-25T19:36:55.828Z,75.18
2018-12-25T19:39:23.285Z,75.09
2018-12-25T19:41:50.741Z,75.14
2018-12-25T19:44:18.204Z,74.67
2018-12-25T19:46:45.627Z,75.12
2018-12-25T19:49:13.094Z,74.97
2018-12-25T19:51:40.564Z,75.19
2018-12-25T19:54:08.001Z,75.14
2018-12-25T19:56:35.463Z,75.15
2018-12-25T19:59:02.908Z,74.68
2018-12-25T20:01:30.376Z,75.08
2018-12-25T20:03:57.823Z,75.14
2018-12-25T20:06:30.815Z,74.78
2018-12-25T20:09:13.251Z,74.92
2018-12-25T20:11:56.468Z,74.79
2018-12-25T20:14:54.442Z,74.69
2018-12-25T20:17:28.265Z,73.89
2018-12-25T20:20:18.243Z,74.34
2018-12-25T20:22:54.012Z,74.45
2018-12-25T20:25:40.075Z,74.86
2018-12-25T20:28:22.911Z,73.81
2018-12-25T20:31:05.935Z,73.79
2018-12-25T20:33:37.831Z,74.18
2018-12-25T20:36:10.753Z,73.52
2018-12-25T20:38:44.091Z,73.23
2018-12-25T20:41:25.950Z,72.92
2018-12-25T20:44:13.948Z,72.86
2018-12-25T20:46:50.100Z,72.35
2018-12-25T20:49:18.441Z,72.11
2018-12-25T20:52:07.639Z,72.44
2018-12-25T20:55:01.124Z,73.01
2018-12-25T20:57:43.540Z,72.48
2018-12-25T21:00:17.586Z,73.12
2018-12-25T21:02:49.681Z,73.53
2018-12-25T21:05:25.632Z,73.28
2018-12-25T21:08:24.449Z,72.42
2018-12-25T21:11:03.661Z,72.84
2018-12-25T21:13:49.726Z,72.48
2018-12-25T21:16:27.716Z,72.65
2018-12-25T21:19:03.639Z,72.87
2018-12-25T21:21:47.645Z,72.22
2018-12-25T21:24:26.906Z,72.89
2018-12-25T21:27:06.026Z,72.55
2018-12-25T21:29:33.468Z,73.09
2018-12-25T21:32:00.926Z,73.60
2018-12-25T21:34:28.402Z,72.74
2018-12-25T21:36:55.830Z,73.26
2018-12-25T21:39:23.288Z,73.72
2018-12-25T21:41:50.720Z,73.60
2018-12-25T21:44:18.162Z,74.40
2018-12-25T21:46:45.617Z,73.73
2018-12-25T21:49:13.082Z,73.14
2018-12-25T21:51:40.523Z,73.02
2018-12-25T21:54:08.015Z,73.53
2018-12-25T21:56:35.465Z,74.16
2018-12-25T21:59:02.904Z,73.31
2018-12-25T22:01:30.336Z,72.77
2018-12-25T22:03:57.808Z,72.01
2018-12-25T22:06:25.248Z,72.12
2018-12-25T22:08:52.695Z,71.50
2018-12-25T22:11:20.125Z,72.07
2018-12-25T22:13:47.602Z,72.43
2018-12-25T22:16:15.059Z,72.35
2018-12-25T22:18:43.300Z,72.86
2018-12-25T22:21:10.745Z,72.54
2018-12-25T22:23:38.199Z,72.22
2018-12-25T22:26:05.675Z,72.46
2018-12-25T22:28:33.268Z,72.35
2018-12-25T22:31:01.586Z,72.73
2018-12-25T22:33:29.067Z,73.09
2018-12-25T22:35:56.523Z,73.10
2018-12-25T22:38:23.970Z,73.22
2018-12-25T22:40:51.416Z,73.79
2018-12-25T22:43:18.859Z,73.33
2018-12-25T22:45:46.344Z,73.11
2018-12-25T22:48:13.790Z,72.37
2018-12-25T22:50:41.284Z,72.97
2018-12-25T22:53:08.752Z,73.37
2018-12-25T22:55:36.227Z,72.12
2018-12-25T22:58:03.724Z,72.09
2018-12-25T23:00:31.209Z,71.88
2018-12-25T23:02:58.660Z,73.48
2018-12-25T23:05:26.102Z,74.61
2018-12-25T23:07:53.571Z,74.60
2018-12-25T23:10:21.089Z,74.50
2018-12-25T23:12:48.515Z,74.26
2018-12-25T23:15:15.958Z,73.40
2018-12-25T23:17:43.393Z,72.80
2018-12-25T23:20:11.902Z,73.81
2018-12-25T23:22:39.353Z,74.12
2018-12-25T23:25:06.815Z,74.87
2018-12-25T23:27:34.247Z,74.29
2018-12-25T23:30:01.752Z,73.97
2018-12-25T23:32:29.190Z,73.92
2018-12-25T23:34:56.767Z,72.86
2018-12-25T23:37:24.127Z,74.32
2018-12-25T23:39:51.585Z,74.97
2018-12-25T23:42:19.031Z,73.92
2018-12-25T23:44:46.474Z,73.88
2018-12-25T23:47:13.915Z,73.23
2018-12-25T23:49:41.366Z,72.21
2018-12-25T23:52:08.805Z,73.21
2018-12-25T23:54:37.227Z,72.17
2018-12-25T23:57:04.753Z,72.53
2018-12-25T23:59:32.217Z,74.04
